sensor_id;sensor_type;location;lat;lon;timestamp;P1;durP1;ratioP1;P2;durP2;ratioP2
58784;SDS011;44557;51.862;19.378;2023-02-01T00:00:10;5.80;;;2.30;;
58784;SDS011;44557;51.862;19.378;2023-02-01T00:02:33;3.90;;;1.80;;
58784;SDS011;44557;51.862;19.378;2023-02-01T00:04:34;4.40;;;1.70;;
58784;SDS011;44557;51.862;19.378;2023-02-01T00:06:36;4.30;;;1.80;;
58784;SDS011;44557;51.862;19.378;2023-02-01T00:08:38;4.80;;;1.80;;
58784;SDS011;44557;51.862;19.378;2023-02-01T00:10:39;6.80;;;2.40;;
58784;SDS011;44557;51.862;19.378;2023-02-01T00:12:41;5.60;;;1.90;;
58784;SDS011;44557;51.862;19.378;2023-02-01T00:14:42;3.90;;;1.70;;
58784;SDS011;44557;51.862;19.378;2023-02-01T00:16:44;7.50;;;2.40;;
58784;SDS011;44557;51.862;19.378;2023-02-01T00:18:46;7.70;;;2.10;;
58784;SDS011;44557;51.862;19.378;2023-02-01T00:20:49;5.10;;;1.80;;
58784;SDS011;44557;51.862;19.378;2023-02-01T00:22:51;6.80;;;1.60;;
58784;SDS011;44557;51.862;19.378;2023-02-01T00:24:52;5.30;;;2.00;;
58784;SDS011;44557;51.862;19.378;2023-02-01T00:26:54;4.40;;;1.80;;
58784;SDS011;44557;51.862;19.378;2023-02-01T00:28:55;8.20;;;1.70;;
58784;SDS011;44557;51.862;19.378;2023-02-01T00:31:00;7.90;;;1.80;;
58784;SDS011;44557;51.862;19.378;2023-02-01T00:33:04;6.90;;;1.90;;
58784;SDS011;44557;51.862;19.378;2023-02-01T00:35:06;8.10;;;1.70;;
58784;SDS011;44557;51.862;19.378;2023-02-01T00:37:09;6.90;;;2.20;;
58784;SDS011;44557;51.862;19.378;2023-02-01T00:39:11;6.50;;;2.00;;
58784;SDS011;44557;51.862;19.378;2023-02-01T00:41:14;7.50;;;1.90;;
58784;SDS011;44557;51.862;19.378;2023-02-01T00:43:17;6.20;;;1.70;;
58784;SDS011;44557;51.862;19.378;2023-02-01T00:45:19;3.90;;;1.40;;
58784;SDS011;44557;51.862;19.378;2023-02-01T00:47:21;6.00;;;1.30;;
58784;SDS011;44557;51.862;19.378;2023-02-01T00:49:23;8.40;;;1.80;;
58784;SDS011;44557;51.862;19.378;2023-02-01T00:51:25;11.90;;;1.80;;
58784;SDS011;44557;51.862;19.378;2023-02-01T00:53:29;9.90;;;1.70;;
58784;SDS011;44557;51.862;19.378;2023-02-01T00:55:31;8.50;;;1.90;;
58784;SDS011;44557;51.862;19.378;2023-02-01T00:57:33;13.90;;;2.60;;
58784;SDS011;44557;51.862;19.378;2023-02-01T00:59:34;8.80;;;1.80;;
58784;SDS011;44557;51.862;19.378;2023-02-01T01:01:36;9.60;;;2.20;;
58784;SDS011;44557;51.862;19.378;2023-02-01T01:03:39;6.90;;;1.60;;
58784;SDS011;44557;51.862;19.378;2023-02-01T01:05:43;11.70;;;2.30;;
58784;SDS011;44557;51.862;19.378;2023-02-01T01:07:45;8.80;;;1.80;;
58784;SDS011;44557;51.862;19.378;2023-02-01T01:09:47;6.40;;;1.70;;
58784;SDS011;44557;51.862;19.378;2023-02-01T01:11:48;8.90;;;1.70;;
58784;SDS011;44557;51.862;19.378;2023-02-01T01:13:52;7.30;;;1.80;;
58784;SDS011;44557;51.862;19.378;2023-02-01T01:15:56;7.30;;;1.60;;
58784;SDS011;44557;51.862;19.378;2023-02-01T01:17:57;6.70;;;1.60;;
58784;SDS011;44557;51.862;19.378;2023-02-01T01:19:59;9.20;;;1.90;;
58784;SDS011;44557;51.862;19.378;2023-02-01T01:22:00;7.30;;;1.60;;
58784;SDS011;44557;51.862;19.378;2023-02-01T01:24:02;7.70;;;1.90;;
58784;SDS011;44557;51.862;19.378;2023-02-01T01:26:04;6.70;;;1.80;;
58784;SDS011;44557;51.862;19.378;2023-02-01T01:28:11;6.60;;;1.50;;
58784;SDS011;44557;51.862;19.378;2023-02-01T01:30:13;8.90;;;1.80;;
58784;SDS011;44557;51.862;19.378;2023-02-01T01:32:14;11.60;;;2.00;;
58784;SDS011;44557;51.862;19.378;2023-02-01T01:34:16;12.00;;;2.20;;
58784;SDS011;44557;51.862;19.378;2023-02-01T01:36:18;7.90;;;1.70;;
58784;SDS011;44557;51.862;19.378;2023-02-01T01:38:20;9.20;;;2.20;;
58784;SDS011;44557;51.862;19.378;2023-02-01T01:40:22;8.90;;;1.80;;
58784;SDS011;44557;51.862;19.378;2023-02-01T01:42:23;11.90;;;3.10;;
58784;SDS011;44557;51.862;19.378;2023-02-01T01:46:59;9.80;;;2.10;;
58784;SDS011;44557;51.862;19.378;2023-02-01T01:49:09;9.00;;;2.00;;
58784;SDS011;44557;51.862;19.378;2023-02-01T01:51:14;8.30;;;2.10;;
58784;SDS011;44557;51.862;19.378;2023-02-01T01:53:22;6.70;;;1.60;;
58784;SDS011;44557;51.862;19.378;2023-02-01T01:55:30;9.10;;;2.00;;
58784;SDS011;44557;51.862;19.378;2023-02-01T01:57:37;9.10;;;2.30;;
58784;SDS011;44557;51.862;19.378;2023-02-01T01:59:47;8.90;;;1.70;;
58784;SDS011;44557;51.862;19.378;2023-02-01T02:01:51;6.50;;;1.60;;
58784;SDS011;44557;51.862;19.378;2023-02-01T02:03:53;7.30;;;2.00;;
58784;SDS011;44557;51.862;19.378;2023-02-01T02:05:57;10.40;;;2.00;;
58784;SDS011;44557;51.862;19.378;2023-02-01T02:08:01;8.10;;;2.30;;
58784;SDS011;44557;51.862;19.378;2023-02-01T02:10:04;10.60;;;2.50;;
58784;SDS011;44557;51.862;19.378;2023-02-01T02:12:07;11.40;;;2.30;;
58784;SDS011;44557;51.862;19.378;2023-02-01T02:14:09;11.50;;;2.30;;
58784;SDS011;44557;51.862;19.378;2023-02-01T02:21:26;9.10;;;2.30;;
58784;SDS011;44557;51.862;19.378;2023-02-01T02:33:25;14.50;;;2.90;;
58784;SDS011;44557;51.862;19.378;2023-02-01T02:37:58;8.30;;;2.60;;
58784;SDS011;44557;51.862;19.378;2023-02-01T02:40:12;12.40;;;3.10;;
58784;SDS011;44557;51.862;19.378;2023-02-01T02:42:34;9.80;;;2.80;;
58784;SDS011;44557;51.862;19.378;2023-02-01T02:45:16;10.80;;;2.60;;
58784;SDS011;44557;51.862;19.378;2023-02-01T02:47:56;12.10;;;2.90;;
58784;SDS011;44557;51.862;19.378;2023-02-01T02:52:36;11.40;;;2.70;;
58784;SDS011;44557;51.862;19.378;2023-02-01T02:55:03;7.90;;;3.00;;
58784;SDS011;44557;51.862;19.378;2023-02-01T02:57:07;11.90;;;2.50;;
58784;SDS011;44557;51.862;19.378;2023-02-01T02:59:30;11.30;;;2.50;;
58784;SDS011;44557;51.862;19.378;2023-02-01T03:01:51;10.70;;;3.50;;
58784;SDS011;44557;51.862;19.378;2023-02-01T03:04:12;13.10;;;3.20;;
58784;SDS011;44557;51.862;19.378;2023-02-01T03:06:18;7.80;;;2.30;;
58784;SDS011;44557;51.862;19.378;2023-02-01T03:12:42;10.10;;;2.90;;
58784;SDS011;44557;51.862;19.378;2023-02-01T03:14:57;10.10;;;3.00;;
58784;SDS011;44557;51.862;19.378;2023-02-01T03:17:11;14.50;;;2.90;;
58784;SDS011;44557;51.862;19.378;2023-02-01T03:19:18;15.10;;;3.30;;
58784;SDS011;44557;51.862;19.378;2023-02-01T03:21:35;10.30;;;2.80;;
58784;SDS011;44557;51.862;19.378;2023-02-01T03:23:40;10.90;;;3.00;;
58784;SDS011;44557;51.862;19.378;2023-02-01T03:25:44;10.80;;;2.60;;
58784;SDS011;44557;51.862;19.378;2023-02-01T03:27:49;14.50;;;3.20;;
58784;SDS011;44557;51.862;19.378;2023-02-01T03:32:07;10.60;;;2.70;;
58784;SDS011;44557;51.862;19.378;2023-02-01T03:34:11;15.60;;;3.10;;
58784;SDS011;44557;51.862;19.378;2023-02-01T03:38:37;12.00;;;3.00;;
58784;SDS011;44557;51.862;19.378;2023-02-01T03:40:45;14.40;;;2.70;;
58784;SDS011;44557;51.862;19.378;2023-02-01T03:42:52;12.80;;;2.80;;
58784;SDS011;44557;51.862;19.378;2023-02-01T03:44:58;10.40;;;2.80;;
58784;SDS011;44557;51.862;19.378;2023-02-01T03:47:09;15.10;;;2.70;;
58784;SDS011;44557;51.862;19.378;2023-02-01T03:49:18;11.70;;;3.50;;
58784;SDS011;44557;51.862;19.378;2023-02-01T03:51:27;10.60;;;2.70;;
58784;SDS011;44557;51.862;19.378;2023-02-01T03:53:30;11.70;;;3.00;;
58784;SDS011;44557;51.862;19.378;2023-02-01T03:55:34;13.70;;;3.10;;
58784;SDS011;44557;51.862;19.378;2023-02-01T03:57:41;11.50;;;2.90;;
58784;SDS011;44557;51.862;19.378;2023-02-01T03:59:47;11.40;;;2.30;;
58784;SDS011;44557;51.862;19.378;2023-02-01T04:01:49;11.30;;;2.50;;
58784;SDS011;44557;51.862;19.378;2023-02-01T04:03:51;11.80;;;2.80;;
58784;SDS011;44557;51.862;19.378;2023-02-01T04:05:53;10.40;;;2.30;;
58784;SDS011;44557;51.862;19.378;2023-02-01T04:07:55;12.20;;;2.50;;
58784;SDS011;44557;51.862;19.378;2023-02-01T04:09:57;12.00;;;2.50;;
58784;SDS011;44557;51.862;19.378;2023-02-01T04:11:59;10.60;;;2.40;;
58784;SDS011;44557;51.862;19.378;2023-02-01T04:14:00;11.60;;;2.90;;
58784;SDS011;44557;51.862;19.378;2023-02-01T04:16:05;11.00;;;2.50;;
58784;SDS011;44557;51.862;19.378;2023-02-01T04:18:07;9.70;;;2.70;;
58784;SDS011;44557;51.862;19.378;2023-02-01T04:20:08;9.70;;;2.10;;
58784;SDS011;44557;51.862;19.378;2023-02-01T04:22:11;11.70;;;3.10;;
58784;SDS011;44557;51.862;19.378;2023-02-01T04:24:13;11.40;;;2.70;;
58784;SDS011;44557;51.862;19.378;2023-02-01T04:26:14;11.60;;;3.30;;
58784;SDS011;44557;51.862;19.378;2023-02-01T04:28:17;11.50;;;2.30;;
58784;SDS011;44557;51.862;19.378;2023-02-01T04:30:18;10.10;;;2.40;;
58784;SDS011;44557;51.862;19.378;2023-02-01T04:32:20;9.00;;;2.10;;
58784;SDS011;44557;51.862;19.378;2023-02-01T04:34:22;10.70;;;2.70;;
58784;SDS011;44557;51.862;19.378;2023-02-01T04:36:25;9.50;;;2.50;;
58784;SDS011;44557;51.862;19.378;2023-02-01T04:38:27;8.70;;;2.20;;
58784;SDS011;44557;51.862;19.378;2023-02-01T04:40:30;11.20;;;2.30;;
58784;SDS011;44557;51.862;19.378;2023-02-01T04:42:31;9.80;;;2.30;;
58784;SDS011;44557;51.862;19.378;2023-02-01T04:44:33;6.40;;;2.00;;
58784;SDS011;44557;51.862;19.378;2023-02-01T04:46:35;10.90;;;2.50;;
58784;SDS011;44557;51.862;19.378;2023-02-01T04:48:36;12.40;;;2.60;;
58784;SDS011;44557;51.862;19.378;2023-02-01T04:50:38;11.20;;;2.70;;
58784;SDS011;44557;51.862;19.378;2023-02-01T04:52:39;9.90;;;2.50;;
58784;SDS011;44557;51.862;19.378;2023-02-01T04:54:42;10.60;;;2.30;;
58784;SDS011;44557;51.862;19.378;2023-02-01T04:56:44;10.40;;;2.40;;
58784;SDS011;44557;51.862;19.378;2023-02-01T04:58:45;9.30;;;2.50;;
58784;SDS011;44557;51.862;19.378;2023-02-01T05:00:47;13.30;;;2.50;;
58784;SDS011;44557;51.862;19.378;2023-02-01T05:02:48;8.50;;;2.40;;
58784;SDS011;44557;51.862;19.378;2023-02-01T05:04:50;11.40;;;3.00;;
58784;SDS011;44557;51.862;19.378;2023-02-01T05:06:52;7.90;;;2.20;;
58784;SDS011;44557;51.862;19.378;2023-02-01T05:08:53;8.70;;;1.80;;
58784;SDS011;44557;51.862;19.378;2023-02-01T05:10:55;13.60;;;2.60;;
58784;SDS011;44557;51.862;19.378;2023-02-01T05:12:56;16.40;;;2.40;;
58784;SDS011;44557;51.862;19.378;2023-02-01T05:15:17;9.70;;;2.20;;
58784;SDS011;44557;51.862;19.378;2023-02-01T05:17:18;10.60;;;2.70;;
58784;SDS011;44557;51.862;19.378;2023-02-01T05:19:20;12.60;;;2.40;;
58784;SDS011;44557;51.862;19.378;2023-02-01T05:21:22;7.80;;;2.00;;
58784;SDS011;44557;51.862;19.378;2023-02-01T05:23:23;9.20;;;2.10;;
58784;SDS011;44557;51.862;19.378;2023-02-01T05:25:25;13.30;;;2.40;;
58784;SDS011;44557;51.862;19.378;2023-02-01T05:27:28;12.20;;;2.60;;
58784;SDS011;44557;51.862;19.378;2023-02-01T05:29:31;11.80;;;2.90;;
58784;SDS011;44557;51.862;19.378;2023-02-01T05:31:33;10.20;;;2.00;;
58784;SDS011;44557;51.862;19.378;2023-02-01T05:33:35;11.80;;;2.10;;
58784;SDS011;44557;51.862;19.378;2023-02-01T05:35:36;14.10;;;2.60;;
58784;SDS011;44557;51.862;19.378;2023-02-01T05:37:38;8.50;;;2.10;;
58784;SDS011;44557;51.862;19.378;2023-02-01T05:39:39;11.10;;;2.90;;
58784;SDS011;44557;51.862;19.378;2023-02-01T05:41:44;11.00;;;2.80;;
58784;SDS011;44557;51.862;19.378;2023-02-01T05:43:45;14.30;;;2.70;;
58784;SDS011;44557;51.862;19.378;2023-02-01T05:45:47;13.00;;;2.60;;
58784;SDS011;44557;51.862;19.378;2023-02-01T05:47:49;12.20;;;2.50;;
58784;SDS011;44557;51.862;19.378;2023-02-01T05:49:50;13.30;;;2.40;;
58784;SDS011;44557;51.862;19.378;2023-02-01T05:51:52;15.50;;;3.00;;
58784;SDS011;44557;51.862;19.378;2023-02-01T05:53:54;12.40;;;2.70;;
58784;SDS011;44557;51.862;19.378;2023-02-01T05:55:55;13.10;;;2.80;;
58784;SDS011;44557;51.862;19.378;2023-02-01T05:57:57;14.40;;;3.50;;
58784;SDS011;44557;51.862;19.378;2023-02-01T05:59:58;12.20;;;2.40;;
58784;SDS011;44557;51.862;19.378;2023-02-01T06:02:00;13.10;;;2.80;;
58784;SDS011;44557;51.862;19.378;2023-02-01T06:04:01;12.60;;;3.10;;
58784;SDS011;44557;51.862;19.378;2023-02-01T06:06:03;13.80;;;2.90;;
58784;SDS011;44557;51.862;19.378;2023-02-01T06:08:05;13.50;;;2.50;;
58784;SDS011;44557;51.862;19.378;2023-02-01T06:10:09;14.00;;;3.20;;
58784;SDS011;44557;51.862;19.378;2023-02-01T06:12:11;12.10;;;2.20;;
58784;SDS011;44557;51.862;19.378;2023-02-01T06:14:12;12.40;;;3.00;;
58784;SDS011;44557;51.862;19.378;2023-02-01T06:16:14;11.50;;;2.80;;
58784;SDS011;44557;51.862;19.378;2023-02-01T06:18:18;10.60;;;2.90;;
58784;SDS011;44557;51.862;19.378;2023-02-01T06:20:20;13.40;;;3.20;;
58784;SDS011;44557;51.862;19.378;2023-02-01T06:22:22;15.60;;;3.20;;
58784;SDS011;44557;51.862;19.378;2023-02-01T06:24:24;11.70;;;2.60;;
58784;SDS011;44557;51.862;19.378;2023-02-01T06:26:25;16.00;;;3.60;;
58784;SDS011;44557;51.862;19.378;2023-02-01T06:28:29;10.90;;;2.40;;
58784;SDS011;44557;51.862;19.378;2023-02-01T06:30:32;10.90;;;2.60;;
58784;SDS011;44557;51.862;19.378;2023-02-01T06:32:34;12.60;;;2.80;;
58784;SDS011;44557;51.862;19.378;2023-02-01T06:34:35;9.80;;;2.70;;
58784;SDS011;44557;51.862;19.378;2023-02-01T06:36:38;13.00;;;2.30;;
58784;SDS011;44557;51.862;19.378;2023-02-01T06:38:40;9.20;;;2.70;;
58784;SDS011;44557;51.862;19.378;2023-02-01T06:40:42;12.60;;;3.20;;
58784;SDS011;44557;51.862;19.378;2023-02-01T06:42:44;11.70;;;2.30;;
58784;SDS011;44557;51.862;19.378;2023-02-01T06:44:46;12.90;;;2.50;;
58784;SDS011;44557;51.862;19.378;2023-02-01T06:46:47;16.20;;;2.40;;
58784;SDS011;44557;51.862;19.378;2023-02-01T06:48:49;11.50;;;2.60;;
58784;SDS011;44557;51.862;19.378;2023-02-01T06:50:52;10.70;;;2.70;;
58784;SDS011;44557;51.862;19.378;2023-02-01T06:52:53;11.90;;;2.80;;
58784;SDS011;44557;51.862;19.378;2023-02-01T06:54:55;11.20;;;2.40;;
58784;SDS011;44557;51.862;19.378;2023-02-01T06:56:57;11.60;;;2.40;;
58784;SDS011;44557;51.862;19.378;2023-02-01T06:58:59;12.60;;;2.90;;
58784;SDS011;44557;51.862;19.378;2023-02-01T07:01:05;12.40;;;2.70;;
58784;SDS011;44557;51.862;19.378;2023-02-01T07:03:08;10.90;;;2.50;;
58784;SDS011;44557;51.862;19.378;2023-02-01T07:05:09;16.20;;;2.80;;
58784;SDS011;44557;51.862;19.378;2023-02-01T07:07:11;10.40;;;2.40;;
58784;SDS011;44557;51.862;19.378;2023-02-01T07:09:13;11.60;;;3.10;;
58784;SDS011;44557;51.862;19.378;2023-02-01T07:11:15;11.00;;;2.70;;
58784;SDS011;44557;51.862;19.378;2023-02-01T07:13:18;14.70;;;3.00;;
58784;SDS011;44557;51.862;19.378;2023-02-01T07:15:20;15.10;;;3.50;;
58784;SDS011;44557;51.862;19.378;2023-02-01T07:17:22;11.00;;;2.80;;
58784;SDS011;44557;51.862;19.378;2023-02-01T07:19:24;15.90;;;3.30;;
58784;SDS011;44557;51.862;19.378;2023-02-01T07:21:25;12.30;;;3.30;;
58784;SDS011;44557;51.862;19.378;2023-02-01T07:23:28;13.80;;;3.00;;
58784;SDS011;44557;51.862;19.378;2023-02-01T07:25:30;11.20;;;2.80;;
58784;SDS011;44557;51.862;19.378;2023-02-01T07:27:35;13.00;;;3.00;;
58784;SDS011;44557;51.862;19.378;2023-02-01T07:29:37;15.20;;;2.90;;
58784;SDS011;44557;51.862;19.378;2023-02-01T07:31:38;11.00;;;2.80;;
58784;SDS011;44557;51.862;19.378;2023-02-01T07:33:40;9.80;;;2.70;;
58784;SDS011;44557;51.862;19.378;2023-02-01T07:35:43;11.00;;;3.00;;
58784;SDS011;44557;51.862;19.378;2023-02-01T07:37:44;9.70;;;3.00;;
58784;SDS011;44557;51.862;19.378;2023-02-01T07:39:46;13.50;;;3.30;;
58784;SDS011;44557;51.862;19.378;2023-02-01T07:41:47;11.80;;;3.30;;
58784;SDS011;44557;51.862;19.378;2023-02-01T07:43:51;12.40;;;3.20;;
58784;SDS011;44557;51.862;19.378;2023-02-01T07:45:54;15.50;;;3.60;;
58784;SDS011;44557;51.862;19.378;2023-02-01T07:47:56;11.60;;;2.60;;
58784;SDS011;44557;51.862;19.378;2023-02-01T07:49:58;11.10;;;3.10;;
58784;SDS011;44557;51.862;19.378;2023-02-01T07:51:59;10.70;;;2.20;;
58784;SDS011;44557;51.862;19.378;2023-02-01T07:54:01;12.90;;;2.90;;
58784;SDS011;44557;51.862;19.378;2023-02-01T07:56:02;10.60;;;3.00;;
58784;SDS011;44557;51.862;19.378;2023-02-01T07:58:05;10.50;;;3.10;;
58784;SDS011;44557;51.862;19.378;2023-02-01T08:00:07;10.80;;;2.70;;
58784;SDS011;44557;51.862;19.378;2023-02-01T08:02:29;13.60;;;3.00;;
58784;SDS011;44557;51.862;19.378;2023-02-01T08:04:30;14.30;;;3.70;;
58784;SDS011;44557;51.862;19.378;2023-02-01T08:06:33;9.50;;;2.70;;
58784;SDS011;44557;51.862;19.378;2023-02-01T08:08:37;21.10;;;3.60;;
58784;SDS011;44557;51.862;19.378;2023-02-01T08:10:39;12.50;;;3.60;;
58784;SDS011;44557;51.862;19.378;2023-02-01T08:12:40;14.50;;;3.00;;
58784;SDS011;44557;51.862;19.378;2023-02-01T08:14:42;11.80;;;3.10;;
58784;SDS011;44557;51.862;19.378;2023-02-01T08:16:43;14.90;;;3.40;;
58784;SDS011;44557;51.862;19.378;2023-02-01T08:18:45;12.10;;;2.60;;
58784;SDS011;44557;51.862;19.378;2023-02-01T08:20:47;17.10;;;3.60;;
58784;SDS011;44557;51.862;19.378;2023-02-01T08:22:51;12.90;;;2.90;;
58784;SDS011;44557;51.862;19.378;2023-02-01T08:24:53;13.30;;;3.80;;
58784;SDS011;44557;51.862;19.378;2023-02-01T08:27:02;14.00;;;3.40;;
58784;SDS011;44557;51.862;19.378;2023-02-01T08:29:04;15.80;;;3.30;;
58784;SDS011;44557;51.862;19.378;2023-02-01T08:31:10;9.00;;;2.80;;
58784;SDS011;44557;51.862;19.378;2023-02-01T08:33:15;15.20;;;3.50;;
58784;SDS011;44557;51.862;19.378;2023-02-01T08:35:17;12.10;;;2.90;;
58784;SDS011;44557;51.862;19.378;2023-02-01T08:37:18;14.40;;;4.00;;
58784;SDS011;44557;51.862;19.378;2023-02-01T08:39:20;13.50;;;3.50;;
58784;SDS011;44557;51.862;19.378;2023-02-01T08:41:23;17.30;;;3.80;;
58784;SDS011;44557;51.862;19.378;2023-02-01T08:43:27;14.30;;;4.20;;
58784;SDS011;44557;51.862;19.378;2023-02-01T08:45:29;13.60;;;3.70;;
58784;SDS011;44557;51.862;19.378;2023-02-01T08:47:31;12.20;;;3.10;;
58784;SDS011;44557;51.862;19.378;2023-02-01T08:49:32;10.50;;;3.00;;
58784;SDS011;44557;51.862;19.378;2023-02-01T08:51:34;12.40;;;3.60;;
58784;SDS011;44557;51.862;19.378;2023-02-01T08:53:36;14.00;;;4.10;;
58784;SDS011;44557;51.862;19.378;2023-02-01T08:55:38;14.50;;;3.60;;
58784;SDS011;44557;51.862;19.378;2023-02-01T08:57:40;18.90;;;4.10;;
58784;SDS011;44557;51.862;19.378;2023-02-01T08:59:42;13.40;;;3.30;;
58784;SDS011;44557;51.862;19.378;2023-02-01T09:01:45;14.00;;;3.30;;
58784;SDS011;44557;51.862;19.378;2023-02-01T09:03:46;11.30;;;3.20;;
58784;SDS011;44557;51.862;19.378;2023-02-01T09:05:48;11.10;;;2.70;;
58784;SDS011;44557;51.862;19.378;2023-02-01T09:07:50;13.30;;;3.20;;
58784;SDS011;44557;51.862;19.378;2023-02-01T09:09:51;12.30;;;3.00;;
58784;SDS011;44557;51.862;19.378;2023-02-01T09:11:55;11.20;;;2.80;;
58784;SDS011;44557;51.862;19.378;2023-02-01T09:13:57;15.70;;;3.00;;
58784;SDS011;44557;51.862;19.378;2023-02-01T09:15:59;11.40;;;3.30;;
58784;SDS011;44557;51.862;19.378;2023-02-01T09:18:01;16.30;;;3.30;;
58784;SDS011;44557;51.862;19.378;2023-02-01T09:20:03;13.20;;;3.70;;
58784;SDS011;44557;51.862;19.378;2023-02-01T09:22:05;16.00;;;3.30;;
58784;SDS011;44557;51.862;19.378;2023-02-01T09:24:08;14.10;;;3.50;;
58784;SDS011;44557;51.862;19.378;2023-02-01T09:26:11;16.20;;;3.60;;
58784;SDS011;44557;51.862;19.378;2023-02-01T09:28:13;12.50;;;3.30;;
58784;SDS011;44557;51.862;19.378;2023-02-01T09:30:17;13.90;;;3.40;;
58784;SDS011;44557;51.862;19.378;2023-02-01T09:32:20;15.80;;;4.10;;
58784;SDS011;44557;51.862;19.378;2023-02-01T09:34:23;13.90;;;3.80;;
58784;SDS011;44557;51.862;19.378;2023-02-01T09:36:24;14.60;;;3.60;;
58784;SDS011;44557;51.862;19.378;2023-02-01T09:38:26;11.70;;;3.30;;
58784;SDS011;44557;51.862;19.378;2023-02-01T09:40:28;12.40;;;3.50;;
58784;SDS011;44557;51.862;19.378;2023-02-01T09:42:48;13.70;;;3.90;;
58784;SDS011;44557;51.862;19.378;2023-02-01T09:47:01;15.20;;;4.40;;
58784;SDS011;44557;51.862;19.378;2023-02-01T09:49:08;17.40;;;5.20;;
58784;SDS011;44557;51.862;19.378;2023-02-01T09:51:26;14.80;;;4.70;;
58784;SDS011;44557;51.862;19.378;2023-02-01T09:53:55;13.60;;;5.00;;
58784;SDS011;44557;51.862;19.378;2023-02-01T09:56:05;14.70;;;4.80;;
58784;SDS011;44557;51.862;19.378;2023-02-01T09:58:12;20.00;;;5.40;;
58784;SDS011;44557;51.862;19.378;2023-02-01T10:00:24;17.60;;;5.00;;
58784;SDS011;44557;51.862;19.378;2023-02-01T10:02:28;16.50;;;5.80;;
58784;SDS011;44557;51.862;19.378;2023-02-01T10:04:31;13.50;;;5.00;;
58784;SDS011;44557;51.862;19.378;2023-02-01T10:11:23;18.30;;;5.50;;
58784;SDS011;44557;51.862;19.378;2023-02-01T10:23:11;17.10;;;5.30;;
58784;SDS011;44557;51.862;19.378;2023-02-01T10:27:35;17.70;;;6.30;;
58784;SDS011;44557;51.862;19.378;2023-02-01T10:29:39;16.80;;;6.20;;
58784;SDS011;44557;51.862;19.378;2023-02-01T10:31:42;16.10;;;5.20;;
58784;SDS011;44557;51.862;19.378;2023-02-01T10:33:45;16.10;;;5.70;;
58784;SDS011;44557;51.862;19.378;2023-02-01T10:36:10;14.40;;;4.90;;
58784;SDS011;44557;51.862;19.378;2023-02-01T10:38:28;14.30;;;5.50;;
58784;SDS011;44557;51.862;19.378;2023-02-01T10:40:31;13.50;;;5.00;;
58784;SDS011;44557;51.862;19.378;2023-02-01T10:42:33;17.90;;;5.30;;
58784;SDS011;44557;51.862;19.378;2023-02-01T10:44:34;16.60;;;5.60;;
58784;SDS011;44557;51.862;19.378;2023-02-01T10:46:44;18.40;;;4.90;;
58784;SDS011;44557;51.862;19.378;2023-02-01T10:48:45;17.10;;;4.70;;
58784;SDS011;44557;51.862;19.378;2023-02-01T10:50:51;17.60;;;4.80;;
58784;SDS011;44557;51.862;19.378;2023-02-01T10:53:08;18.70;;;5.90;;
58784;SDS011;44557;51.862;19.378;2023-02-01T10:57:38;14.60;;;5.10;;
58784;SDS011;44557;51.862;19.378;2023-02-01T10:59:40;13.90;;;4.90;;
58784;SDS011;44557;51.862;19.378;2023-02-01T11:01:42;17.40;;;5.30;;
58784;SDS011;44557;51.862;19.378;2023-02-01T11:05:56;12.50;;;4.50;;
58784;SDS011;44557;51.862;19.378;2023-02-01T11:07:57;14.30;;;4.70;;
58784;SDS011;44557;51.862;19.378;2023-02-01T11:10:01;19.80;;;5.30;;
58784;SDS011;44557;51.862;19.378;2023-02-01T11:12:04;14.70;;;5.00;;
58784;SDS011;44557;51.862;19.378;2023-02-01T11:16:21;14.40;;;4.80;;
58784;SDS011;44557;51.862;19.378;2023-02-01T11:18:30;14.30;;;5.00;;
58784;SDS011;44557;51.862;19.378;2023-02-01T11:20:38;14.40;;;4.90;;
58784;SDS011;44557;51.862;19.378;2023-02-01T11:23:02;15.10;;;4.80;;
58784;SDS011;44557;51.862;19.378;2023-02-01T11:27:14;13.20;;;4.40;;
58784;SDS011;44557;51.862;19.378;2023-02-01T11:29:18;19.90;;;5.80;;
58784;SDS011;44557;51.862;19.378;2023-02-01T11:31:26;15.40;;;4.70;;
58784;SDS011;44557;51.862;19.378;2023-02-01T11:33:29;13.80;;;5.00;;
58784;SDS011;44557;51.862;19.378;2023-02-01T11:35:39;15.00;;;5.50;;
58784;SDS011;44557;51.862;19.378;2023-02-01T11:37:42;18.80;;;4.90;;
58784;SDS011;44557;51.862;19.378;2023-02-01T11:39:53;17.40;;;5.40;;
58784;SDS011;44557;51.862;19.378;2023-02-01T11:42:00;16.80;;;4.50;;
58784;SDS011;44557;51.862;19.378;2023-02-01T11:44:15;14.90;;;4.40;;
58784;SDS011;44557;51.862;19.378;2023-02-01T11:46:22;11.80;;;3.90;;
58784;SDS011;44557;51.862;19.378;2023-02-01T11:48:32;12.80;;;3.80;;
58784;SDS011;44557;51.862;19.378;2023-02-01T11:59:58;8.20;;;3.90;;
58784;SDS011;44557;51.862;19.378;2023-02-01T12:02:19;9.90;;;3.40;;
58784;SDS011;44557;51.862;19.378;2023-02-01T12:25:16;8.30;;;3.10;;
58784;SDS011;44557;51.862;19.378;2023-02-01T12:27:47;10.90;;;3.50;;
58784;SDS011;44557;51.862;19.378;2023-02-01T12:34:38;6.60;;;3.50;;
58784;SDS011;44557;51.862;19.378;2023-02-01T12:36:53;8.00;;;3.90;;
58784;SDS011;44557;51.862;19.378;2023-02-01T12:39:23;9.50;;;4.00;;
58784;SDS011;44557;51.862;19.378;2023-02-01T12:46:06;10.10;;;4.70;;
58784;SDS011;44557;51.862;19.378;2023-02-01T12:50:26;14.30;;;5.30;;
58784;SDS011;44557;51.862;19.378;2023-02-01T12:54:57;11.80;;;4.70;;
58784;SDS011;44557;51.862;19.378;2023-02-01T12:57:46;13.90;;;5.10;;
58784;SDS011;44557;51.862;19.378;2023-02-01T12:59:38;12.10;;;4.90;;
58784;SDS011;44557;51.862;19.378;2023-02-01T13:01:49;10.80;;;4.90;;
58784;SDS011;44557;51.862;19.378;2023-02-01T13:04:13;12.50;;;5.40;;
58784;SDS011;44557;51.862;19.378;2023-02-01T13:06:39;11.70;;;4.80;;
58784;SDS011;44557;51.862;19.378;2023-02-01T13:08:48;14.00;;;4.80;;
58784;SDS011;44557;51.862;19.378;2023-02-01T13:11:03;11.20;;;4.60;;
58784;SDS011;44557;51.862;19.378;2023-02-01T13:17:18;13.20;;;5.50;;
58784;SDS011;44557;51.862;19.378;2023-02-01T13:21:51;9.40;;;4.60;;
58784;SDS011;44557;51.862;19.378;2023-02-01T13:23:56;11.60;;;5.00;;
58784;SDS011;44557;51.862;19.378;2023-02-01T13:25:59;11.10;;;4.20;;
58784;SDS011;44557;51.862;19.378;2023-02-01T13:28:04;12.10;;;4.90;;
58784;SDS011;44557;51.862;19.378;2023-02-01T13:30:22;9.70;;;4.40;;
58784;SDS011;44557;51.862;19.378;2023-02-01T13:34:46;10.50;;;4.30;;
58784;SDS011;44557;51.862;19.378;2023-02-01T13:43:55;10.90;;;4.30;;
58784;SDS011;44557;51.862;19.378;2023-02-01T13:46:07;8.60;;;4.20;;
58784;SDS011;44557;51.862;19.378;2023-02-01T13:48:27;10.90;;;4.40;;
58784;SDS011;44557;51.862;19.378;2023-02-01T13:50:38;7.90;;;4.10;;
58784;SDS011;44557;51.862;19.378;2023-02-01T13:52:43;10.00;;;5.00;;
58784;SDS011;44557;51.862;19.378;2023-02-01T13:54:46;12.10;;;4.80;;
58784;SDS011;44557;51.862;19.378;2023-02-01T13:56:48;12.40;;;4.80;;
58784;SDS011;44557;51.862;19.378;2023-02-01T13:58:49;11.00;;;5.10;;
58784;SDS011;44557;51.862;19.378;2023-02-01T14:00:53;12.10;;;5.60;;
58784;SDS011;44557;51.862;19.378;2023-02-01T14:03:18;11.70;;;5.60;;
58784;SDS011;44557;51.862;19.378;2023-02-01T14:12:48;15.10;;;6.70;;
58784;SDS011;44557;51.862;19.378;2023-02-01T14:14:50;11.70;;;5.60;;
58784;SDS011;44557;51.862;19.378;2023-02-01T14:18:57;15.00;;;6.20;;
58784;SDS011;44557;51.862;19.378;2023-02-01T14:23:27;13.00;;;6.10;;
58784;SDS011;44557;51.862;19.378;2023-02-01T14:25:32;13.20;;;6.60;;